Time;durP1;ratioP1;P1;durP2;ratioP2;P2;SDS_P1;SDS_P2;PMS_P1;PMS_P2;Temp;Humidity;BMP_temperature;BMP_pressure;BME280_temperature;BME280_humidity;BME280_pressure;Samples;Min_cycle;Max_cycle;Signal;HPM_P1;HPM_P2
2023/08/13 00:02:01;;;;;;;7.40;3.78;;;15.30;90.20;;;;;;5069835;28;20040;-46
2023/08/13 00:04:27;;;;;;;11.80;3.53;;;15.30;90.10;;;;;;5074481;28;20024;-46
2023/08/13 00:06:54;;;;;;;12.55;4.18;;;15.30;90.10;;;;;;5074203;28;20035;-47
2023/08/13 00:09:21;;;;;;;12.43;3.60;;;15.20;90.10;;;;;;5054102;28;20522;-46
2023/08/13 00:11:48;;;;;;;9.23;2.95;;;15.20;90.20;;;;;;5060261;28;20078;-46
2023/08/13 00:14:15;;;;;;;7.00;3.67;;;15.20;90.10;;;;;;5052747;28;20024;-47
2023/08/13 00:16:44;;;;;;;10.75;3.47;;;15.20;90.10;;;;;;5072827;28;20039;-47
2023/08/13 00:19:10;;;;;;;13.60;4.78;;;15.20;90.00;;;;;;5074007;28;20024;-46
2023/08/13 00:21:37;;;;;;;11.48;4.18;;;15.20;90.10;;;;;;5073201;28;20116;-45
2023/08/13 00:24:04;;;;;;;12.88;3.35;;;15.20;90.00;;;;;;5073373;28;20036;-45
2023/08/13 00:26:31;;;;;;;9.30;3.33;;;15.20;90.10;;;;;;5073393;28;20111;-46
2023/08/13 00:28:58;;;;;;;9.60;4.18;;;15.20;90.00;;;;;;5072820;28;20086;-46
2023/08/13 00:31:24;;;;;;;17.38;4.15;;;15.20;89.90;;;;;;5072549;28;20039;-46
2023/08/13 00:33:50;;;;;;;7.82;3.42;;;15.20;90.00;;;;;;5072583;28;20103;-46
2023/08/13 00:36:15;;;;;;;13.70;3.88;;;15.10;89.90;;;;;;5073141;28;20059;-45
2023/08/13 00:38:42;;;;;;;10.65;4.03;;;15.20;90.00;;;;;;5073710;28;20029;-46
2023/08/13 00:41:09;;;;;;;9.40;3.72;;;15.20;90.00;;;;;;5072968;28;20036;-45
2023/08/13 00:43:39;;;;;;;10.90;3.92;;;15.20;90.10;;;;;;5053292;28;20028;-45
2023/08/13 00:46:07;;;;;;;9.45;3.85;;;15.20;90.00;;;;;;5053924;28;20361;-45
2023/08/13 00:48:38;;;;;;;9.20;4.85;;;15.20;90.00;;;;;;5055453;28;20025;-46
2023/08/13 00:51:06;;;;;;;14.38;5.10;;;15.20;90.10;;;;;;5071343;28;20025;-45
2023/08/13 00:53:43;;;;;;;10.38;3.42;;;15.20;90.10;;;;;;5072122;28;20085;-47
2023/08/13 00:56:10;;;;;;;14.35;4.40;;;15.20;90.10;;;;;;5073424;28;20028;-45
2023/08/13 00:58:37;;;;;;;16.13;5.35;;;15.20;90.10;;;;;;5063360;28;20029;-47
2023/08/13 01:01:04;;;;;;;7.78;3.90;;;15.10;90.00;;;;;;5062762;28;20044;-45
2023/08/13 01:03:31;;;;;;;18.70;4.50;;;15.00;90.10;;;;;;5052584;28;20033;-45
2023/08/13 01:06:15;;;;;;;11.52;4.30;;;15.00;90.20;;;;;;5072028;28;20028;-46
2023/08/13 01:08:59;;;;;;;9.23;3.75;;;15.00;90.30;;;;;;5072598;28;20054;-46
2023/08/13 01:12:01;;;;;;;7.50;4.45;;;15.00;90.40;;;;;;5072608;28;20432;-45
2023/08/13 01:14:52;;;;;;;13.70;4.05;;;15.00;90.40;;;;;;5059035;28;20421;-44
2023/08/13 01:17:22;;;;;;;9.82;4.55;;;15.00;90.50;;;;;;5051700;28;20035;-45
2023/08/13 01:19:49;;;;;;;14.55;5.45;;;15.00;90.50;;;;;;5072137;28;20035;-46
2023/08/13 01:22:16;;;;;;;13.95;4.75;;;15.00;90.50;;;;;;5054465;28;20597;-47
2023/08/13 01:24:43;;;;;;;14.98;5.32;;;15.00;90.60;;;;;;5071101;28;20162;-45
2023/08/13 01:27:56;;;;;;;9.88;3.55;;;15.00;90.50;;;;;;5072880;28;20028;-45
2023/08/13 01:30:44;;;;;;;12.23;4.85;;;14.90;90.50;;;;;;4967230;28;20081;-44
2023/08/13 01:33:19;;;;;;;15.65;4.63;;;14.90;90.60;;;;;;5046067;28;20116;-45
2023/08/13 01:35:49;;;;;;;11.35;5.25;;;14.90;90.60;;;;;;5034980;28;20426;-45
2023/08/13 01:38:16;;;;;;;;;;;14.90;90.40;;;;;;5061119;28;20110;-45
2023/08/13 01:40:43;;;;;;;9.75;3.78;;;14.90;90.60;;;;;;5070924;28;19951;-47
2023/08/13 01:43:10;;;;;;;11.20;4.35;;;14.90;90.70;;;;;;5071615;28;20043;-45
2023/08/13 01:45:37;;;;;;;14.20;4.07;;;14.90;90.80;;;;;;5071041;28;20056;-44
2023/08/13 01:48:04;;;;;;;11.85;4.50;;;14.90;90.80;;;;;;5071686;28;20028;-45
2023/08/13 01:50:31;;;;;;;12.68;4.68;;;14.90;90.70;;;;;;5069322;28;20025;-45
2023/08/13 01:53:02;;;;;;;11.63;5.18;;;14.90;90.80;;;;;;5071464;28;20130;-46
2023/08/13 01:55:29;;;;;;;12.55;5.40;;;14.90;90.70;;;;;;5071362;28;20623;-45
2023/08/13 01:57:56;;;;;;;11.18;4.40;;;14.90;90.50;;;;;;5053250;28;20426;-45
2023/08/13 02:00:22;;;;;;;9.35;4.28;;;14.90;90.50;;;;;;5070193;28;20706;-45
2023/08/13 02:02:49;;;;;;;19.63;4.78;;;14.90;90.30;;;;;;5072671;28;20056;-44
2023/08/13 02:05:15;;;;;;;11.88;4.50;;;14.90;90.30;;;;;;5072494;28;20384;-45
2023/08/13 02:07:43;;;;;;;11.15;4.53;;;14.90;90.30;;;;;;5050820;28;20033;-45
2023/08/13 02:10:10;;;;;;;9.68;4.57;;;14.90;90.30;;;;;;5060884;28;20070;-44
2023/08/13 02:12:36;;;;;;;9.50;3.88;;;14.90;90.30;;;;;;5071451;28;20020;-47
2023/08/13 02:15:04;;;;;;;8.60;4.10;;;14.90;90.20;;;;;;5070891;28;20074;-45
2023/08/13 02:17:31;;;;;;;9.95;4.15;;;14.80;90.20;;;;;;5071526;28;20029;-46
2023/08/13 02:19:56;;;;;;;9.88;4.20;;;14.90;90.30;;;;;;5054698;28;20067;-45
2023/08/13 02:22:22;;;;;;;10.13;3.60;;;14.80;90.10;;;;;;5071703;28;20056;-45
2023/08/13 02:24:49;;;;;;;12.43;3.67;;;14.80;90.10;;;;;;5054750;28;20024;-46
2023/08/13 02:27:16;;;;;;;7.85;3.50;;;14.80;90.30;;;;;;5071623;28;20066;-45
2023/08/13 02:29:43;;;;;;;7.25;3.78;;;14.80;90.10;;;;;;5055951;28;20068;-45
2023/08/13 02:32:09;;;;;;;11.23;4.95;;;14.80;90.10;;;;;;5067527;28;20028;-45
2023/08/13 02:34:45;;;;;;;10.25;4.05;;;14.80;90.20;;;;;;5072346;28;20031;-46
2023/08/13 02:37:11;;;;;;;12.85;4.57;;;14.70;90.10;;;;;;5071862;28;20381;-44
2023/08/13 02:39:40;;;;;;;9.43;3.75;;;14.70;90.00;;;;;;5061890;28;20069;-44
2023/08/13 02:42:05;;;;;;;10.88;4.28;;;14.70;90.30;;;;;;5057841;28;20130;-45
2023/08/13 02:44:34;;;;;;;15.80;4.60;;;14.60;90.10;;;;;;5054951;28;20147;-45
2023/08/13 02:47:01;;;;;;;8.98;3.65;;;14.60;90.20;;;;;;5063771;28;20113;-45
2023/08/13 02:49:27;;;;;;;14.35;4.22;;;14.60;90.30;;;;;;5071844;28;20029;-48
2023/08/13 02:51:54;;;;;;;11.82;4.82;;;14.60;90.20;;;;;;5071245;28;20024;-45
2023/08/13 02:54:23;;;;;;;12.50;3.92;;;14.60;90.30;;;;;;5067080;28;20036;-45
2023/08/13 02:56:50;;;;;;;15.15;4.72;;;14.50;90.30;;;;;;5071823;28;20103;-47
2023/08/13 02:59:17;;;;;;;7.47;3.28;;;14.50;90.30;;;;;;5065095;28;20032;-45
2023/08/13 03:01:45;;;;;;;11.70;3.80;;;14.50;90.40;;;;;;5071100;28;20032;-45
2023/08/13 03:04:12;;;;;;;13.70;4.32;;;14.60;90.30;;;;;;5056099;28;20029;-47
2023/08/13 03:06:42;;;;;;;8.48;3.40;;;14.50;90.30;;;;;;5056627;28;20023;-45
2023/08/13 03:09:17;;;;;;;10.77;3.78;;;14.50;90.40;;;;;;5075575;28;20067;-46
2023/08/13 03:11:47;;;;;;;11.02;4.07;;;14.50;90.50;;;;;;5053690;28;20044;-45
2023/08/13 03:14:14;;;;;;;10.93;5.18;;;14.50;90.50;;;;;;5062906;28;20506;-45
2023/08/13 03:16:43;;;;;;;13.90;4.15;;;14.60;90.40;;;;;;5074375;28;20051;-45
2023/08/13 03:19:10;;;;;;;9.90;4.17;;;14.60;90.40;;;;;;5074223;28;20046;-45
2023/08/13 03:21:37;;;;;;;11.68;4.78;;;14.60;90.50;;;;;;5075275;28;20024;-45
2023/08/13 03:24:04;;;;;;;10.57;3.95;;;14.60;90.60;;;;;;5075041;28;20020;-45
2023/08/13 03:26:31;;;;;;;10.27;3.40;;;14.60;90.50;;;;;;5074544;28;20103;-45
2023/08/13 03:28:57;;;;;;;15.07;4.63;;;14.70;90.50;;;;;;5056312;28;20029;-44
2023/08/13 03:31:24;;;;;;;15.65;4.70;;;14.70;90.40;;;;;;5056484;28;20361;-44
2023/08/13 03:33:51;;;;;;;15.68;5.25;;;14.70;90.50;;;;;;5074455;28;20883;-45
2023/08/13 03:36:16;;;;;;;10.43;3.75;;;14.70;90.40;;;;;;5074488;28;20025;-46
2023/08/13 03:38:44;;;;;;;9.40;4.05;;;14.70;90.50;;;;;;5073309;28;20056;-45
2023/08/13 03:41:11;;;;;;;8.48;3.42;;;14.60;90.50;;;;;;5075213;28;20028;-45
2023/08/13 03:43:38;;;;;;;15.10;4.85;;;14.60;90.50;;;;;;5073879;28;20024;-47
2023/08/13 03:46:06;;;;;;;10.50;4.57;;;14.60;90.60;;;;;;5070174;28;20049;-46
2023/08/13 03:48:33;;;;;;;13.10;4.32;;;14.60;90.60;;;;;;5037409;28;20032;-45
2023/08/13 03:51:01;;;;;;;11.07;4.45;;;14.60;90.70;;;;;;5054455;28;20028;-45
2023/08/13 03:53:30;;;;;;;13.55;4.35;;;14.60;90.60;;;;;;5073867;28;20021;-46
2023/08/13 03:55:57;;;;;;;12.55;4.15;;;14.60;90.70;;;;;;5074977;28;20032;-45
2023/08/13 03:58:25;;;;;;;11.27;5.35;;;14.50;90.70;;;;;;5074119;28;20064;-45
2023/08/13 04:00:51;;;;;;;11.35;4.22;;;14.50;90.70;;;;;;5064757;28;20033;-47
2023/08/13 04:03:19;;;;;;;14.32;4.22;;;14.50;90.60;;;;;;5073246;28;20043;-46
2023/08/13 04:05:47;;;;;;;10.43;5.03;;;14.50;90.80;;;;;;5072026;28;20024;-46
2023/08/13 04:08:13;;;;;;;12.43;4.53;;;14.50;90.80;;;;;;5074835;28;20028;-45
2023/08/13 04:10:40;;;;;;;9.00;3.55;;;14.50;90.90;;;;;;5057152;28;20354;-44
2023/08/13 04:13:07;;;;;;;11.25;4.28;;;14.50;90.90;;;;;;5056084;28;20033;-46
2023/08/13 04:15:34;;;;;;;6.63;3.88;;;14.50;91.00;;;;;;5054085;28;20035;-44
2023/08/13 04:18:01;;;;;;;13.15;4.35;;;14.50;91.00;;;;;;5055522;28;20033;-45
2023/08/13 04:20:28;;;;;;;9.18;4.80;;;14.50;91.00;;;;;;5074659;28;20612;-45
2023/08/13 04:22:54;;;;;;;9.65;3.63;;;14.60;91.00;;;;;;5074344;28;20025;-45
2023/08/13 04:25:25;;;;;;;14.93;4.05;;;14.60;90.90;;;;;;5056048;28;20470;-47
2023/08/13 04:27:54;;;;;;;11.55;4.03;;;14.60;90.90;;;;;;5054604;28;20089;-47
2023/08/13 04:30:20;;;;;;;8.20;3.40;;;14.70;90.90;;;;;;5063830;28;20350;-45
2023/08/13 04:32:56;;;;;;;14.05;4.15;;;14.70;90.90;;;;;;5061160;28;20039;-44
2023/08/13 04:35:23;;;;;;;14.50;4.47;;;14.70;90.90;;;;;;5071772;28;20551;-45
2023/08/13 04:37:50;;;;;;;12.45;4.60;;;14.80;90.90;;;;;;5055813;28;20354;-46
2023/08/13 04:40:17;;;;;;;9.88;3.85;;;14.80;90.90;;;;;;5074257;28;20081;-45
2023/08/13 04:42:44;;;;;;;11.60;3.75;;;14.80;90.70;;;;;;5073136;28;20496;-45
2023/08/13 04:45:12;;;;;;;8.45;3.42;;;14.80;90.90;;;;;;5064280;28;20104;-45
2023/08/13 04:47:39;;;;;;;14.52;3.42;;;14.80;90.70;;;;;;5073667;28;20025;-45
2023/08/13 04:50:07;;;;;;;14.57;4.65;;;14.80;90.80;;;;;;5073132;28;20024;-44
2023/08/13 04:52:38;;;;;;;8.70;4.00;;;14.80;90.60;;;;;;5067838;28;20446;-45
2023/08/13 04:55:08;;;;;;;6.88;3.55;;;14.80;90.70;;;;;;5071385;28;20032;-45
2023/08/13 04:57:36;;;;;;;10.38;3.80;;;14.80;90.70;;;;;;5073764;28;20028;-45
2023/08/13 05:00:03;;;;;;;11.32;4.68;;;14.80;90.70;;;;;;5067353;28;20307;-48
2023/08/13 05:02:30;;;;;;;9.10;4.88;;;14.80;90.60;;;;;;5054543;28;20112;-45
2023/08/13 05:04:56;;;;;;;10.77;3.88;;;14.90;90.70;;;;;;5052748;28;20029;-45
2023/08/13 05:07:22;;;;;;;14.05;3.72;;;14.90;90.70;;;;;;5069895;28;20099;-46
2023/08/13 05:09:51;;;;;;;9.85;4.43;;;14.80;90.70;;;;;;5065054;28;20044;-45
2023/08/13 05:12:20;;;;;;;12.47;4.17;;;14.90;90.80;;;;;;5063976;28;20025;-45
2023/08/13 05:14:48;;;;;;;14.05;5.45;;;14.90;91.00;;;;;;5062251;28;20052;-45
2023/08/13 05:17:19;;;;;;;10.77;3.65;;;14.90;91.10;;;;;;5061457;28;20040;-47
2023/08/13 05:19:46;;;;;;;16.75;4.40;;;15.00;91.10;;;;;;5059864;28;20032;-45
2023/08/13 05:22:14;;;;;;;8.70;4.70;;;15.00;91.10;;;;;;5059787;28;20082;-46
2023/08/13 05:24:47;;;;;;;9.10;4.32;;;15.00;91.10;;;;;;5064258;28;20021;-49
2023/08/13 05:27:14;;;;;;;10.23;3.65;;;15.10;91.20;;;;;;5053562;28;20036;-46
2023/08/13 05:29:39;;;;;;;11.43;4.20;;;15.10;91.20;;;;;;5060517;28;20033;-45
2023/08/13 05:32:09;;;;;;;10.75;4.13;;;15.20;91.20;;;;;;5044221;28;20021;-45
2023/08/13 05:34:36;;;;;;;12.40;5.25;;;15.20;91.20;;;;;;5063675;28;20746;-45
2023/08/13 05:37:01;;;;;;;9.85;3.63;;;15.20;91.20;;;;;;5058417;28;20115;-48
2023/08/13 05:39:28;;;;;;;10.43;4.07;;;15.30;91.20;;;;;;5041743;28;20045;-45
2023/08/13 05:41:55;;;;;;;12.75;4.35;;;15.40;91.20;;;;;;5045136;28;20106;-45
2023/08/13 05:44:22;;;;;;;14.25;3.97;;;15.40;91.20;;;;;;5025558;28;20347;-46
2023/08/13 05:46:51;;;;;;;10.82;3.97;;;15.40;91.20;;;;;;5043286;28;20118;-47
2023/08/13 05:49:18;;;;;;;7.70;3.67;;;15.40;91.20;;;;;;5029436;28;20033;-46
2023/08/13 05:51:43;;;;;;;11.93;4.38;;;15.50;91.30;;;;;;5052936;28;20025;-47
2023/08/13 05:54:10;;;;;;;10.82;3.92;;;15.60;91.50;;;;;;5051282;28;20415;-45
2023/08/13 05:56:37;;;;;;;11.35;4.32;;;15.60;91.50;;;;;;5049233;28;20039;-48
2023/08/13 05:59:08;;;;;;;12.77;4.88;;;15.70;91.50;;;;;;5034486;28;20029;-45
2023/08/13 06:01:37;;;;;;;13.82;4.88;;;15.80;91.50;;;;;;5043908;28;20057;-45
2023/08/13 06:04:06;;;;;;;15.80;4.45;;;15.80;91.50;;;;;;5024748;28;20053;-45
2023/08/13 06:06:33;;;;;;;16.67;5.37;;;15.80;91.50;;;;;;5036802;28;20033;-45
2023/08/13 06:08:59;;;;;;;13.10;5.75;;;15.90;91.40;;;;;;5045343;28;20025;-47
2023/08/13 06:11:24;;;;;;;10.48;4.82;;;15.90;91.40;;;;;;5023280;28;20116;-46
2023/08/13 06:13:51;;;;;;;14.52;5.95;;;15.90;91.30;;;;;;5044224;28;20028;-46
2023/08/13 06:16:17;;;;;;;9.60;5.38;;;16.00;91.40;;;;;;5020422;28;20025;-45
2023/08/13 06:18:46;;;;;;;15.52;5.28;;;16.10;91.40;;;;;;5042691;28;20028;-47
2023/08/13 06:21:11;;;;;;;10.80;5.00;;;16.20;91.50;;;;;;5033251;28;20037;-49
2023/08/13 06:23:38;;;;;;;12.65;4.65;;;16.20;91.60;;;;;;5043034;28;20405;-46
2023/08/13 06:26:09;;;;;;;10.25;4.90;;;16.30;91.70;;;;;;5051158;28;20041;-47
2023/08/13 06:28:35;;;;;;;16.05;6.30;;;16.40;91.60;;;;;;5032981;28;20041;-46
2023/08/13 06:31:03;;;;;;;9.27;4.47;;;16.40;91.20;;;;;;5050499;28;20100;-50
2023/08/13 06:33:34;;;;;;;13.32;5.45;;;16.50;91.30;;;;;;5049932;28;20032;-48
2023/08/13 06:36:01;;;;;;;14.27;4.95;;;16.60;91.10;;;;;;5032858;28;20056;-47
2023/08/13 06:38:31;;;;;;;19.98;5.10;;;16.70;91.20;;;;;;5057652;28;20050;-46
2023/08/13 06:41:02;;;;;;;;;;;16.90;90.70;;;;;;5061010;28;20036;-46
2023/08/13 06:43:29;;;;;;;17.75;5.50;;;16.90;90.40;;;;;;5057984;28;19991;-48
2023/08/13 06:45:56;;;;;;;12.55;4.80;;;17.00;89.90;;;;;;5065391;28;20024;-49
2023/08/13 06:48:23;;;;;;;12.68;4.97;;;17.20;89.70;;;;;;5057227;28;20037;-48
2023/08/13 06:50:57;;;;;;;15.48;5.45;;;17.30;89.60;;;;;;5063845;28;20406;-50
2023/08/13 06:53:23;;;;;;;15.32;5.70;;;17.50;89.60;;;;;;5059947;28;20020;-47
2023/08/13 06:55:51;;;;;;;17.92;4.50;;;17.60;89.20;;;;;;5061436;28;20025;-48
2023/08/13 06:58:18;;;;;;;12.82;4.57;;;17.70;88.70;;;;;;5061897;28;20393;-48
2023/08/13 07:00:46;;;;;;;14.30;5.18;;;17.90;88.90;;;;;;5068330;28;20024;-49
2023/08/13 07:03:13;;;;;;;13.00;4.28;;;18.00;88.50;;;;;;5069292;28;20512;-50
2023/08/13 07:05:42;;;;;;;12.45;4.53;;;18.10;88.00;;;;;;5059736;28;20033;-48
2023/08/13 07:08:10;;;;;;;13.05;4.88;;;18.20;87.90;;;;;;5058785;28;20029;-52
2023/08/13 07:10:38;;;;;;;12.60;4.10;;;18.40;87.80;;;;;;5053706;28;20040;-50
2023/08/13 07:13:05;;;;;;;12.68;4.78;;;18.40;86.90;;;;;;5048765;28;20029;-49
2023/08/13 07:15:33;;;;;;;18.15;5.60;;;18.40;87.20;;;;;;5065338;28;20043;-55
2023/08/13 07:18:00;;;;;;;12.70;4.35;;;18.50;87.50;;;;;;5053887;28;20326;-55
2023/08/13 07:20:26;;;;;;;13.52;4.45;;;18.60;86.80;;;;;;5062268;28;20040;-51
2023/08/13 07:22:53;;;;;;;14.52;4.75;;;18.70;86.30;;;;;;5067459;28;20036;-53
2023/08/13 07:25:20;;;;;;;14.20;4.97;;;18.90;86.30;;;;;;5071206;28;20036;-56
2023/08/13 07:27:48;;;;;;;13.35;5.22;;;19.00;86.10;;;;;;5063861;28;20033;-55
2023/08/13 07:30:15;;;;;;;10.38;3.85;;;19.00;85.10;;;;;;5060819;28;20342;-56
2023/08/13 07:32:40;;;;;;;16.60;4.00;;;18.90;84.90;;;;;;5060372;28;20090;-54
2023/08/13 07:35:06;;;;;;;11.93;4.43;;;18.90;84.90;;;;;;5061306;28;20025;-55
2023/08/13 07:37:34;;;;;;;9.25;3.15;;;18.80;84.80;;;;;;5050857;28;20072;-55
2023/08/13 07:40:01;;;;;;;18.48;5.10;;;18.70;85.00;;;;;;5062838;28;20518;-55
2023/08/13 07:42:28;;;;;;;12.00;4.80;;;18.80;85.50;;;;;;5059634;28;20029;-57
2023/08/13 07:44:55;;;;;;;11.07;4.13;;;18.90;85.70;;;;;;5065180;28;20059;-53
2023/08/13 07:47:22;;;;;;;11.13;3.90;;;19.10;85.30;;;;;;5069096;28;20035;-57
2023/08/13 07:49:51;;;;;;;13.73;4.85;;;19.40;84.50;;;;;;5055838;28;20029;-56
2023/08/13 07:52:19;;;;;;;15.25;5.30;;;19.60;83.60;;;;;;5074310;28;20119;-55
2023/08/13 07:54:48;;;;;;;12.00;3.97;;;19.90;83.40;;;;;;5072985;28;20118;-53
2023/08/13 07:57:13;;;;;;;11.85;4.07;;;20.20;81.00;;;;;;5074147;28;20082;-55
2023/08/13 07:59:39;;;;;;;11.35;3.55;;;20.40;81.50;;;;;;5073747;28;20024;-55
2023/08/13 08:02:09;;;;;;;7.60;3.38;;;20.90;80.90;;;;;;5059675;28;20036;-55
2023/08/13 08:04:35;;;;;;;14.00;4.60;;;21.00;80.00;;;;;;5055134;28;20104;-55
2023/08/13 08:07:01;;;;;;;11.93;3.35;;;21.30;78.90;;;;;;5039605;28;20107;-56
2023/08/13 08:09:28;;;;;;;7.38;3.30;;;21.50;78.00;;;;;;5070479;28;20061;-53
2023/08/13 08:11:58;;;;;;;11.82;4.38;;;21.70;77.50;;;;;;5054761;28;20016;-54
2023/08/13 08:14:25;;;;;;;9.40;3.22;;;21.60;77.70;;;;;;5057285;28;20025;-56
2023/08/13 08:17:00;;;;;;;14.98;3.78;;;21.50;77.60;;;;;;5069233;28;20040;-56
2023/08/13 08:19:30;;;;;;;10.02;3.70;;;21.60;76.90;;;;;;5074623;28;20075;-52
2023/08/13 08:21:58;;;;;;;11.27;3.72;;;21.70;77.50;;;;;;5064162;28;20074;-54
2023/08/13 08:24:25;;;;;;;7.75;3.10;;;21.60;76.90;;;;;;5071359;28;20753;-55
2023/08/13 08:26:51;;;;;;;11.30;3.63;;;21.50;77.10;;;;;;5068092;28;20117;-55
2023/08/13 08:29:21;;;;;;;7.78;2.97;;;21.30;76.90;;;;;;5044505;28;20428;-53
2023/08/13 08:31:50;;;;;;;9.82;3.35;;;21.10;78.10;;;;;;5062384;28;20103;-51
2023/08/13 08:34:17;;;;;;;6.75;3.40;;;21.00;78.40;;;;;;5053416;28;20021;-54
2023/08/13 08:36:43;;;;;;;8.95;3.72;;;20.90;78.90;;;;;;5060421;28;20082;-51
2023/08/13 08:39:10;;;;;;;8.00;3.65;;;20.90;79.40;;;;;;5067925;28;20060;-54
2023/08/13 08:41:46;;;;;;;10.25;3.85;;;20.90;79.20;;;;;;5057854;28;20067;-53
2023/08/13 08:44:21;;;;;;;11.70;4.15;;;20.80;79.20;;;;;;5033633;28;20086;-54
2023/08/13 08:46:53;;;;;;;9.07;3.28;;;20.70;79.50;;;;;;5056885;28;20039;-56
2023/08/13 08:49:21;;;;;;;6.47;3.38;;;20.70;79.60;;;;;;5061879;28;20027;-56
2023/08/13 08:51:48;;;;;;;11.05;4.15;;;20.90;79.30;;;;;;5056093;28;20469;-54
2023/08/13 08:54:15;;;;;;;11.55;3.30;;;21.10;79.10;;;;;;5036690;28;20033;-55
2023/08/13 08:56:42;;;;;;;9.00;4.07;;;21.30;77.60;;;;;;5054395;28;20181;-53
2023/08/13 08:59:09;;;;;;;13.27;3.17;;;21.50;77.50;;;;;;5064592;28;20051;-55
2023/08/13 09:01:35;;;;;;;12.25;3.33;;;21.60;76.80;;;;;;5054127;28;20036;-52
2023/08/13 09:04:02;;;;;;;13.60;3.47;;;21.40;76.70;;;;;;5064757;28;20358;-51
2023/08/13 09:07:06;;;;;;;11.05;3.67;;;21.30;77.70;;;;;;5054057;28;20040;-54
2023/08/13 09:09:33;;;;;;;11.98;3.70;;;21.10;77.00;;;;;;5062438;28;21313;-54
2023/08/13 09:12:02;;;;;;;10.15;4.05;;;21.30;78.60;;;;;;5050722;28;20551;-54
2023/08/13 09:14:29;;;;;;;6.97;3.42;;;21.40;77.90;;;;;;5066703;28;20377;-52
2023/08/13 09:16:59;;;;;;;8.05;3.40;;;21.50;77.50;;;;;;5056410;28;20057;-50
2023/08/13 09:19:27;;;;;;;8.70;3.10;;;21.70;77.80;;;;;;5066721;28;20419;-53
2023/08/13 09:22:14;;;;;;;8.68;3.63;;;21.80;75.60;;;;;;5069312;28;20403;-52
2023/08/13 09:24:41;;;;;;;8.60;3.70;;;21.60;75.00;;;;;;5064921;28;20569;-55
2023/08/13 09:27:09;;;;;;;9.52;3.72;;;21.30;75.70;;;;;;5054757;28;20021;-51
2023/08/13 09:29:38;;;;;;;10.43;3.53;;;21.10;77.10;;;;;;5071010;28;20024;-56
2023/08/13 09:32:05;;;;;;;9.10;3.00;;;21.60;78.30;;;;;;5050337;28;20043;-55
2023/08/13 09:34:33;;;;;;;12.63;4.50;;;22.10;76.60;;;;;;5070963;28;20395;-52
2023/08/13 09:37:02;;;;;;;7.75;3.13;;;22.30;76.50;;;;;;5050590;28;20059;-55
2023/08/13 09:39:31;;;;;;;8.27;3.60;;;22.40;75.70;;;;;;5058663;28;20100;-53
2023/08/13 09:41:59;;;;;;;9.17;3.00;;;22.60;74.70;;;;;;5037771;28;20489;-50
2023/08/13 09:44:27;;;;;;;9.48;3.20;;;23.20;75.00;;;;;;5059373;28;20028;-51
2023/08/13 09:47:03;;;;;;;10.17;3.37;;;23.30;72.00;;;;;;5062158;28;20440;-54
2023/08/13 09:49:31;;;;;;;11.82;3.58;;;23.40;72.40;;;;;;5056028;28;20286;-55
2023/08/13 09:52:01;;;;;;;11.23;3.15;;;23.40;71.40;;;;;;5052842;28;20025;-54
2023/08/13 09:54:47;;;;;;;7.45;2.47;;;23.70;72.90;;;;;;5070261;28;20017;-51
2023/08/13 09:57:17;;;;;;;8.65;2.95;;;23.80;73.50;;;;;;5051401;28;20025;-51
2023/08/13 09:59:45;;;;;;;6.85;2.70;;;23.90;72.60;;;;;;5072208;28;20039;-56
2023/08/13 10:02:17;;;;;;;8.60;2.67;;;23.90;69.30;;;;;;5054747;28;20381;-54
2023/08/13 10:04:47;;;;;;;9.35;2.50;;;24.20;70.00;;;;;;5060228;28;20032;-50
2023/08/13 10:07:15;;;;;;;;;;;24.30;68.80;;;;;;5066145;28;20067;-53
2023/08/13 10:09:43;;;;;;;5.80;2.40;;;24.30;66.90;;;;;;5071485;28;20341;-52
2023/08/13 10:12:10;;;;;;;8.50;2.45;;;24.40;68.80;;;;;;5069283;28;20091;-53
2023/08/13 10:14:38;;;;;;;8.05;2.70;;;24.60;68.30;;;;;;5054569;28;20024;-55
2023/08/13 10:17:06;;;;;;;8.60;2.20;;;24.80;67.10;;;;;;5068466;28;20043;-53
2023/08/13 10:19:48;;;;;;;6.90;2.27;;;25.10;66.00;;;;;;5062771;28;20652;-54
2023/08/13 10:22:33;;;;;;;6.07;2.60;;;25.30;66.70;;;;;;5072367;28;20028;-52
2023/08/13 10:25:01;;;;;;;11.23;3.10;;;25.10;64.20;;;;;;5068837;28;20055;-56
2023/08/13 10:27:28;;;;;;;7.50;2.40;;;25.00;64.10;;;;;;5065460;28;20028;-56
2023/08/13 10:30:13;;;;;;;6.93;2.22;;;24.60;64.50;;;;;;5071733;28;20025;-54
2023/08/13 10:33:03;;;;;;;5.07;2.35;;;24.10;67.60;;;;;;5054381;28;20552;-54
2023/08/13 10:35:34;;;;;;;8.05;2.17;;;24.30;68.90;;;;;;5071326;28;20028;-53
2023/08/13 10:38:03;;;;;;;5.65;2.10;;;24.20;67.10;;;;;;5062440;28;20098;-53
2023/08/13 10:40:30;;;;;;;6.05;1.73;;;24.10;67.20;;;;;;5064940;28;20028;-56
2023/08/13 10:42:59;;;;;;;7.30;2.50;;;23.80;66.70;;;;;;5040479;28;20482;-56
2023/08/13 10:45:37;;;;;;;7.13;2.13;;;23.30;66.80;;;;;;5069997;28;20117;-57
2023/08/13 10:48:26;;;;;;;7.82;1.90;;;22.90;68.80;;;;;;5048433;28;20036;-55
2023/08/13 10:50:58;;;;;;;10.18;2.83;;;23.40;70.80;;;;;;5065609;28;20052;-55
2023/08/13 10:53:27;;;;;;;6.00;2.13;;;23.40;69.80;;;;;;5067468;28;20028;-56
2023/08/13 10:55:55;;;;;;;6.13;2.13;;;23.40;69.50;;;;;;5061378;28;20111;-52
2023/08/13 10:58:32;;;;;;;6.47;2.08;;;23.50;70.30;;;;;;5048020;28;20287;-56
2023/08/13 11:01:20;;;;;;;4.35;1.80;;;23.60;69.60;;;;;;5068617;28;20488;-53
2023/08/13 11:03:57;;;;;;;7.35;2.53;;;23.20;68.30;;;;;;5068053;28;20036;-55
2023/08/13 11:06:27;;;;;;;8.20;2.83;;;22.90;69.30;;;;;;5070451;28;20444;-57
2023/08/13 11:08:56;;;;;;;7.03;2.13;;;22.80;70.40;;;;;;5065891;28;20021;-52
2023/08/13 11:11:23;;;;;;;6.25;2.40;;;22.70;71.60;;;;;;5050264;28;20020;-53
2023/08/13 11:13:53;;;;;;;8.02;2.13;;;22.60;70.80;;;;;;5060434;28;20109;-52
2023/08/13 11:16:19;;;;;;;;;;;22.60;70.80;;;;;;5058236;28;20056;-56
2023/08/13 11:18:46;;;;;;;7.10;1.63;;;22.50;70.10;;;;;;5062329;28;19935;-53
2023/08/13 11:21:17;;;;;;;7.10;2.75;;;22.40;70.70;;;;;;5064468;28;20025;-55
2023/08/13 11:23:47;;;;;;;9.25;2.42;;;22.20;70.40;;;;;;5060161;28;20033;-55
2023/08/13 11:26:16;;;;;;;5.70;2.13;;;22.20;71.20;;;;;;5063547;28;20422;-55
2023/08/13 11:28:44;;;;;;;8.70;2.55;;;22.20;71.70;;;;;;5062519;28;20381;-55
2023/08/13 11:31:11;;;;;;;6.05;2.25;;;22.20;71.50;;;;;;5065354;28;20029;-54
2023/08/13 11:33:41;;;;;;;5.65;2.10;;;22.00;72.00;;;;;;5065301;28;20049;-56
2023/08/13 11:36:10;;;;;;;5.70;1.92;;;22.10;72.30;;;;;;5065972;28;20029;-56
2023/08/13 11:38:37;;;;;;;;;;;22.10;72.80;;;;;;5063142;28;20397;-56
2023/08/13 11:41:15;;;;;;;5.97;2.53;;;22.20;72.70;;;;;;5064744;28;19995;-54
2023/08/13 11:43:42;;;;;;;6.90;2.72;;;22.70;74.80;;;;;;5056268;28;20036;-57
2023/08/13 11:46:10;;;;;;;6.63;2.25;;;23.20;72.60;;;;;;5064568;28;20047;-56
2023/08/13 11:48:37;;;;;;;6.05;2.22;;;23.50;68.60;;;;;;5047915;28;20056;-57
2023/08/13 11:51:15;;;;;;;5.72;1.88;;;23.80;68.50;;;;;;5059377;28;20476;-55
2023/08/13 11:53:49;;;;;;;6.57;1.92;;;24.00;68.90;;;;;;5048011;28;20048;-56
2023/08/13 11:56:18;;;;;;;7.25;2.05;;;24.40;66.90;;;;;;5066405;28;20082;-57
2023/08/13 11:58:48;;;;;;;5.88;2.53;;;24.40;64.50;;;;;;5068936;28;20081;-54
2023/08/13 12:01:15;;;;;;;5.28;1.77;;;24.50;67.30;;;;;;5059218;28;20377;-56
2023/08/13 12:03:46;;;;;;;4.88;1.70;;;24.60;65.20;;;;;;5062420;28;20037;-56
2023/08/13 12:06:11;;;;;;;5.28;1.70;;;24.40;65.60;;;;;;5042670;28;20338;-56
2023/08/13 12:08:38;;;;;;;5.60;2.40;;;24.00;66.10;;;;;;5040488;28;20029;-55
2023/08/13 12:11:05;;;;;;;6.43;2.03;;;24.10;65.90;;;;;;5066630;28;20027;-57
2023/08/13 12:13:41;;;;;;;8.50;1.80;;;24.20;66.10;;;;;;5074495;28;20029;-56
2023/08/13 12:16:10;;;;;;;5.28;1.75;;;24.40;64.30;;;;;;5072591;28;20020;-55
2023/08/13 12:18:39;;;;;;;7.50;1.65;;;24.60;66.10;;;;;;5071865;28;20468;-56
2023/08/13 12:21:06;;;;;;;;;;;24.40;62.60;;;;;;5074556;28;20032;-55
2023/08/13 12:23:33;;;;;;;4.10;1.65;;;24.30;64.80;;;;;;5053836;28;19909;-57
2023/08/13 12:26:01;;;;;;;4.97;1.73;;;24.10;64.10;;;;;;5072607;28;20032;-55
2023/08/13 12:28:28;;;;;;;6.75;1.90;;;24.00;64.60;;;;;;5069709;28;20029;-57
2023/08/13 12:30:57;;;;;;;6.63;1.45;;;23.70;65.90;;;;;;5050555;28;20112;-57
2023/08/13 12:33:24;;;;;;;5.33;1.70;;;23.60;66.40;;;;;;5054262;28;20040;-54
2023/08/13 12:35:49;;;;;;;3.78;1.60;;;23.70;66.70;;;;;;5068681;28;20035;-53
2023/08/13 12:38:19;;;;;;;5.43;2.33;;;23.80;67.80;;;;;;5057068;28;20124;-55
2023/08/13 12:40:46;;;;;;;6.15;2.00;;;23.90;67.70;;;;;;5067670;28;20123;-56
2023/08/13 12:43:15;;;;;;;5.55;1.75;;;23.90;65.90;;;;;;5072312;28;21892;-55
2023/08/13 12:45:41;;;;;;;2.75;0.95;;;24.20;67.50;;;;;;5065969;28;20032;-56
2023/08/13 12:48:10;;;;;;;4.43;1.55;;;24.40;66.20;;;;;;5058221;28;20063;-56
2023/08/13 12:50:36;;;;;;;4.90;1.65;;;24.40;66.70;;;;;;5056545;28;20043;-56
2023/08/13 12:53:05;;;;;;;6.00;1.92;;;24.40;64.90;;;;;;5072227;28;20028;-57